Rechercher aéroport 
image banner adimage banner adimage banner ad
image banner ad

4CA7 - Johnsen

Situé à Chico, United States

ICAO - 4CA7, IATA -

Données fournies par Airmate  

Information générale

Coordonnées: N39°40'15" W121°53'9"
Élévation : 190 feet MSL.
Variation magnétique : 16° East
Voir autres Aéroports à California

Données opérationnelles

Special qualification required
Heure actuelle UTC:
Heure actuelle locale:
Météo à : KCIC - Chico Muni ( 14 km )
METAR: KCIC 262255Z 15010KT 25SM VIRGA BKN150 BKN200 29/09 A2982 RMK VIRGA ALQDS FU DSNT E
Voir NOTAMs / SUP AIP / TFR affectant cet aéroport [VIEW]
Fréquences de communication: [VIEW]

Pistes:

Identifiant RWYQFULongueur (ft)Largeur (ft)SurfaceLDA (ft)
16270060GRASS
34270060GRASS

Coordonnées de l'aéroport

Adresse: Chico United States

Vue satellite de 4CA7